Skip Navigation LinksHome page > Weather > Current weather Skip Navigation Links

Current Weather

Aurora Muni, Aurora, Ill.

For information only: do not use for flight planning or navigation.
Latest weather
Observation time Friday, August 14, 2020 11:52 AM CDT
Local time Friday, August 14, 2020 12:33 PM CDT
Flight conditions Visual Meteorological Conditions
Winds
Wind direction East-Southeast (120°)
Wind speed 7 mph
Visibility 10 mi.
Sky condition
Ceiling unlimited
Sky clear
Temperature 86°F
Dewpoint 57°F
Altimeter 30.02 in.Hg
Derived measurements
Relative humidity 37%
Heat index 86°F
Density altitude 2541 ft.
Sea-level pressure 30.00 in.Hg
Remarks
Automated weather observing station with precipitation discriminator.
METAR KARR 141652Z 12006KT 10SM CLR 30/14 A3002 RMK AO2 SLP160 T03000139

Settings

Location code

InnerDrive.Weather 4.0.6770.0 Release CLR 4.0.30319.42000
Copyright ©2018 Inner Drive Technology. All rights reserved. Portions Copyright ©1986-2018 David Braverman.

Find weather

Site navigation


Skip Navigation Links

Place info

Page info

PayPal - The safer, easier way to pay online!

Return home.

Copyright ©2020 Inner Drive Technology. Purveyors of fine, hand-crafted computer software. Page printed 2020-08-14T17:33:45 UTC.